sensor_id;sensor_type;location;lat;lon;timestamp;P1;durP1;ratioP1;P2;durP2;ratioP2
6832;SDS011;3454;42.654;23.378;2022-08-21T00:01:38;13.48;;;9.70;;
6832;SDS011;3454;42.654;23.378;2022-08-21T00:04:05;12.25;;;8.73;;
6832;SDS011;3454;42.654;23.378;2022-08-21T00:06:31;10.88;;;8.13;;
6832;SDS011;3454;42.654;23.378;2022-08-21T00:08:58;11.70;;;8.15;;
6832;SDS011;3454;42.654;23.378;2022-08-21T00:11:24;12.43;;;8.23;;
6832;SDS011;3454;42.654;23.378;2022-08-21T00:13:51;14.98;;;9.60;;
6832;SDS011;3454;42.654;23.378;2022-08-21T00:16:17;13.80;;;8.63;;
6832;SDS011;3454;42.654;23.378;2022-08-21T00:18:43;14.90;;;10.55;;
6832;SDS011;3454;42.654;23.378;2022-08-21T00:21:10;15.85;;;11.23;;
6832;SDS011;3454;42.654;23.378;2022-08-21T00:23:39;15.50;;;10.85;;
6832;SDS011;3454;42.654;23.378;2022-08-21T00:26:05;20.13;;;11.23;;
6832;SDS011;3454;42.654;23.378;2022-08-21T00:28:31;12.50;;;10.27;;
6832;SDS011;3454;42.654;23.378;2022-08-21T00:30:57;13.82;;;9.82;;
6832;SDS011;3454;42.654;23.378;2022-08-21T00:33:22;14.43;;;9.40;;
6832;SDS011;3454;42.654;23.378;2022-08-21T00:35:49;16.23;;;9.82;;
6832;SDS011;3454;42.654;23.378;2022-08-21T00:38:14;15.25;;;8.45;;
6832;SDS011;3454;42.654;23.378;2022-08-21T00:40:51;13.20;;;8.85;;
6832;SDS011;3454;42.654;23.378;2022-08-21T00:43:21;12.55;;;8.75;;
6832;SDS011;3454;42.654;23.378;2022-08-21T00:45:49;13.00;;;8.80;;
6832;SDS011;3454;42.654;23.378;2022-08-21T00:48:15;11.77;;;8.68;;
6832;SDS011;3454;42.654;23.378;2022-08-21T00:50:46;12.73;;;7.45;;
6832;SDS011;3454;42.654;23.378;2022-08-21T00:53:17;12.70;;;8.00;;
6832;SDS011;3454;42.654;23.378;2022-08-21T00:55:43;15.18;;;8.43;;
6832;SDS011;3454;42.654;23.378;2022-08-21T00:58:11;13.35;;;6.95;;
6832;SDS011;3454;42.654;23.378;2022-08-21T01:00:40;9.93;;;6.72;;
6832;SDS011;3454;42.654;23.378;2022-08-21T01:03:09;8.80;;;7.13;;
6832;SDS011;3454;42.654;23.378;2022-08-21T01:05:37;9.35;;;6.45;;
6832;SDS011;3454;42.654;23.378;2022-08-21T01:08:03;8.80;;;5.28;;
6832;SDS011;3454;42.654;23.378;2022-08-21T01:10:30;7.25;;;4.90;;
6832;SDS011;3454;42.654;23.378;2022-08-21T01:12:56;7.22;;;5.93;;
6832;SDS011;3454;42.654;23.378;2022-08-21T01:15:27;9.90;;;6.32;;
6832;SDS011;3454;42.654;23.378;2022-08-21T01:17:56;9.35;;;6.32;;
6832;SDS011;3454;42.654;23.378;2022-08-21T01:20:22;11.93;;;6.60;;
6832;SDS011;3454;42.654;23.378;2022-08-21T01:22:48;10.20;;;8.05;;
6832;SDS011;3454;42.654;23.378;2022-08-21T01:25:14;11.25;;;6.53;;
6832;SDS011;3454;42.654;23.378;2022-08-21T01:27:47;10.98;;;7.40;;
6832;SDS011;3454;42.654;23.378;2022-08-21T01:30:14;14.05;;;8.25;;
6832;SDS011;3454;42.654;23.378;2022-08-21T01:32:43;13.40;;;8.77;;
6832;SDS011;3454;42.654;23.378;2022-08-21T01:35:09;16.48;;;8.77;;
6832;SDS011;3454;42.654;23.378;2022-08-21T01:37:37;15.63;;;10.90;;
6832;SDS011;3454;42.654;23.378;2022-08-21T01:40:04;13.90;;;10.18;;
6832;SDS011;3454;42.654;23.378;2022-08-21T01:42:31;21.50;;;12.93;;
6832;SDS011;3454;42.654;23.378;2022-08-21T01:44:57;17.95;;;12.60;;
6832;SDS011;3454;42.654;23.378;2022-08-21T01:47:23;20.35;;;12.05;;
6832;SDS011;3454;42.654;23.378;2022-08-21T01:49:49;22.48;;;12.80;;
6832;SDS011;3454;42.654;23.378;2022-08-21T01:52:14;22.98;;;13.20;;
6832;SDS011;3454;42.654;23.378;2022-08-21T01:54:40;23.90;;;12.43;;
6832;SDS011;3454;42.654;23.378;2022-08-21T01:57:07;19.52;;;12.77;;
6832;SDS011;3454;42.654;23.378;2022-08-21T01:59:34;22.13;;;13.65;;
6832;SDS011;3454;42.654;23.378;2022-08-21T02:01:59;19.33;;;12.48;;
6832;SDS011;3454;42.654;23.378;2022-08-21T02:04:25;18.45;;;11.75;;
6832;SDS011;3454;42.654;23.378;2022-08-21T02:06:52;15.98;;;10.00;;
6832;SDS011;3454;42.654;23.378;2022-08-21T02:09:17;15.82;;;10.73;;
6832;SDS011;3454;42.654;23.378;2022-08-21T02:11:43;14.48;;;9.43;;
6832;SDS011;3454;42.654;23.378;2022-08-21T02:14:12;18.50;;;10.05;;
6832;SDS011;3454;42.654;23.378;2022-08-21T02:16:40;17.20;;;9.95;;
6832;SDS011;3454;42.654;23.378;2022-08-21T02:19:07;14.32;;;9.52;;
6832;SDS011;3454;42.654;23.378;2022-08-21T02:21:33;16.30;;;10.02;;
6832;SDS011;3454;42.654;23.378;2022-08-21T02:23:59;14.85;;;9.85;;
6832;SDS011;3454;42.654;23.378;2022-08-21T02:26:25;16.00;;;10.25;;
6832;SDS011;3454;42.654;23.378;2022-08-21T02:28:51;17.25;;;10.43;;
6832;SDS011;3454;42.654;23.378;2022-08-21T02:31:16;15.05;;;10.82;;
6832;SDS011;3454;42.654;23.378;2022-08-21T02:33:42;17.95;;;10.50;;
6832;SDS011;3454;42.654;23.378;2022-08-21T02:36:08;22.25;;;10.88;;
6832;SDS011;3454;42.654;23.378;2022-08-21T02:38:35;18.42;;;11.30;;
6832;SDS011;3454;42.654;23.378;2022-08-21T02:41:05;18.52;;;9.82;;
6832;SDS011;3454;42.654;23.378;2022-08-21T02:43:32;18.08;;;11.25;;
6832;SDS011;3454;42.654;23.378;2022-08-21T02:45:58;10.73;;;7.50;;
6832;SDS011;3454;42.654;23.378;2022-08-21T02:48:26;13.65;;;8.48;;
6832;SDS011;3454;42.654;23.378;2022-08-21T02:50:57;14.85;;;8.13;;
6832;SDS011;3454;42.654;23.378;2022-08-21T02:53:29;14.52;;;7.90;;
6832;SDS011;3454;42.654;23.378;2022-08-21T02:55:56;10.00;;;7.18;;
6832;SDS011;3454;42.654;23.378;2022-08-21T02:58:25;10.68;;;6.47;;
6832;SDS011;3454;42.654;23.378;2022-08-21T03:00:59;11.50;;;6.75;;
6832;SDS011;3454;42.654;23.378;2022-08-21T03:03:25;12.30;;;6.60;;
6832;SDS011;3454;42.654;23.378;2022-08-21T03:05:53;8.52;;;6.05;;
6832;SDS011;3454;42.654;23.378;2022-08-21T03:08:18;9.48;;;6.25;;
6832;SDS011;3454;42.654;23.378;2022-08-21T03:10:47;11.27;;;5.72;;
6832;SDS011;3454;42.654;23.378;2022-08-21T03:13:16;11.73;;;6.20;;
6832;SDS011;3454;42.654;23.378;2022-08-21T03:15:42;10.88;;;5.22;;
6832;SDS011;3454;42.654;23.378;2022-08-21T03:18:08;9.38;;;4.97;;
6832;SDS011;3454;42.654;23.378;2022-08-21T03:20:35;7.32;;;4.53;;
6832;SDS011;3454;42.654;23.378;2022-08-21T03:23:02;7.47;;;4.65;;
6832;SDS011;3454;42.654;23.378;2022-08-21T03:25:29;10.02;;;5.07;;
6832;SDS011;3454;42.654;23.378;2022-08-21T03:27:57;5.50;;;4.70;;
6832;SDS011;3454;42.654;23.378;2022-08-21T03:30:23;7.68;;;4.45;;
6832;SDS011;3454;42.654;23.378;2022-08-21T03:32:48;9.63;;;4.93;;
6832;SDS011;3454;42.654;23.378;2022-08-21T03:35:14;8.23;;;4.22;;
6832;SDS011;3454;42.654;23.378;2022-08-21T03:37:40;5.80;;;4.40;;
6832;SDS011;3454;42.654;23.378;2022-08-21T03:40:06;11.70;;;4.38;;
6832;SDS011;3454;42.654;23.378;2022-08-21T03:42:33;8.90;;;3.97;;
6832;SDS011;3454;42.654;23.378;2022-08-21T03:44:59;6.80;;;4.72;;
6832;SDS011;3454;42.654;23.378;2022-08-21T03:47:25;8.40;;;3.80;;
6832;SDS011;3454;42.654;23.378;2022-08-21T03:49:51;9.77;;;4.90;;
6832;SDS011;3454;42.654;23.378;2022-08-21T03:52:16;7.85;;;4.35;;
6832;SDS011;3454;42.654;23.378;2022-08-21T03:54:42;7.95;;;4.30;;
6832;SDS011;3454;42.654;23.378;2022-08-21T03:57:09;11.73;;;4.15;;
6832;SDS011;3454;42.654;23.378;2022-08-21T03:59:35;8.82;;;5.13;;
6832;SDS011;3454;42.654;23.378;2022-08-21T04:02:04;10.45;;;6.07;;
6832;SDS011;3454;42.654;23.378;2022-08-21T04:04:30;12.05;;;6.43;;
6832;SDS011;3454;42.654;23.378;2022-08-21T04:06:56;14.95;;;7.72;;
6832;SDS011;3454;42.654;23.378;2022-08-21T04:09:22;15.38;;;7.55;;
6832;SDS011;3454;42.654;23.378;2022-08-21T04:11:56;11.30;;;7.13;;
6832;SDS011;3454;42.654;23.378;2022-08-21T04:14:22;15.13;;;8.88;;
6832;SDS011;3454;42.654;23.378;2022-08-21T04:16:47;15.43;;;7.65;;
6832;SDS011;3454;42.654;23.378;2022-08-21T04:19:13;12.73;;;7.75;;
6832;SDS011;3454;42.654;23.378;2022-08-21T04:21:39;10.60;;;7.97;;
6832;SDS011;3454;42.654;23.378;2022-08-21T04:24:05;12.02;;;7.78;;
6832;SDS011;3454;42.654;23.378;2022-08-21T04:26:32;10.07;;;7.43;;
6832;SDS011;3454;42.654;23.378;2022-08-21T04:28:59;10.93;;;7.88;;
6832;SDS011;3454;42.654;23.378;2022-08-21T04:31:26;12.32;;;7.45;;
6832;SDS011;3454;42.654;23.378;2022-08-21T04:33:53;12.20;;;8.20;;
6832;SDS011;3454;42.654;23.378;2022-08-21T04:36:19;12.18;;;9.05;;
6832;SDS011;3454;42.654;23.378;2022-08-21T04:38:44;10.82;;;7.25;;
6832;SDS011;3454;42.654;23.378;2022-08-21T04:41:10;13.13;;;7.60;;
6832;SDS011;3454;42.654;23.378;2022-08-21T04:43:36;11.48;;;8.10;;
6832;SDS011;3454;42.654;23.378;2022-08-21T04:46:03;9.30;;;7.30;;
6832;SDS011;3454;42.654;23.378;2022-08-21T04:48:28;10.35;;;6.97;;
6832;SDS011;3454;42.654;23.378;2022-08-21T04:51:07;13.40;;;7.65;;
6832;SDS011;3454;42.654;23.378;2022-08-21T04:53:37;10.52;;;6.63;;
6832;SDS011;3454;42.654;23.378;2022-08-21T04:56:26;18.23;;;8.02;;
6832;SDS011;3454;42.654;23.378;2022-08-21T04:58:56;11.23;;;6.75;;
6832;SDS011;3454;42.654;23.378;2022-08-21T05:01:25;10.90;;;7.28;;
6832;SDS011;3454;42.654;23.378;2022-08-21T05:03:54;12.38;;;6.85;;
6832;SDS011;3454;42.654;23.378;2022-08-21T05:06:23;12.82;;;5.97;;
6832;SDS011;3454;42.654;23.378;2022-08-21T05:08:50;10.60;;;5.93;;
6832;SDS011;3454;42.654;23.378;2022-08-21T05:11:20;7.40;;;5.60;;
6832;SDS011;3454;42.654;23.378;2022-08-21T05:13:47;6.63;;;4.50;;
6832;SDS011;3454;42.654;23.378;2022-08-21T05:16:13;7.82;;;4.00;;
6832;SDS011;3454;42.654;23.378;2022-08-21T05:18:38;10.18;;;4.32;;
6832;SDS011;3454;42.654;23.378;2022-08-21T05:21:04;3.92;;;3.13;;
6832;SDS011;3454;42.654;23.378;2022-08-21T05:23:29;7.90;;;3.45;;
6832;SDS011;3454;42.654;23.378;2022-08-21T05:25:55;9.20;;;4.20;;
6832;SDS011;3454;42.654;23.378;2022-08-21T05:28:21;6.72;;;4.85;;
6832;SDS011;3454;42.654;23.378;2022-08-21T05:30:47;8.13;;;6.00;;
6832;SDS011;3454;42.654;23.378;2022-08-21T05:33:12;6.85;;;5.18;;
6832;SDS011;3454;42.654;23.378;2022-08-21T05:35:38;9.38;;;6.05;;
6832;SDS011;3454;42.654;23.378;2022-08-21T05:38:04;8.52;;;5.40;;
6832;SDS011;3454;42.654;23.378;2022-08-21T05:40:30;10.50;;;5.78;;
6832;SDS011;3454;42.654;23.378;2022-08-21T05:42:56;8.75;;;5.85;;
6832;SDS011;3454;42.654;23.378;2022-08-21T05:45:24;9.95;;;5.90;;
6832;SDS011;3454;42.654;23.378;2022-08-21T05:47:55;10.45;;;6.20;;
6832;SDS011;3454;42.654;23.378;2022-08-21T05:50:21;10.07;;;6.20;;
6832;SDS011;3454;42.654;23.378;2022-08-21T05:52:46;9.27;;;5.97;;
6832;SDS011;3454;42.654;23.378;2022-08-21T05:55:12;8.50;;;6.13;;
6832;SDS011;3454;42.654;23.378;2022-08-21T05:57:38;9.52;;;5.63;;
6832;SDS011;3454;42.654;23.378;2022-08-21T06:00:06;10.45;;;6.20;;
6832;SDS011;3454;42.654;23.378;2022-08-21T06:02:37;10.73;;;6.90;;
6832;SDS011;3454;42.654;23.378;2022-08-21T06:05:02;12.50;;;6.97;;
6832;SDS011;3454;42.654;23.378;2022-08-21T06:07:28;11.40;;;7.60;;
6832;SDS011;3454;42.654;23.378;2022-08-21T06:09:53;10.90;;;7.85;;
6832;SDS011;3454;42.654;23.378;2022-08-21T06:12:19;10.40;;;7.53;;
6832;SDS011;3454;42.654;23.378;2022-08-21T06:14:44;9.27;;;6.75;;
6832;SDS011;3454;42.654;23.378;2022-08-21T06:17:10;10.95;;;6.90;;
6832;SDS011;3454;42.654;23.378;2022-08-21T06:19:37;11.18;;;6.45;;
6832;SDS011;3454;42.654;23.378;2022-08-21T06:22:03;11.75;;;6.22;;
6832;SDS011;3454;42.654;23.378;2022-08-21T06:24:29;8.93;;;6.20;;
6832;SDS011;3454;42.654;23.378;2022-08-21T06:26:54;9.85;;;6.45;;
6832;SDS011;3454;42.654;23.378;2022-08-21T06:29:21;9.73;;;7.90;;
6832;SDS011;3454;42.654;23.378;2022-08-21T06:31:47;10.57;;;6.38;;
6832;SDS011;3454;42.654;23.378;2022-08-21T06:34:15;7.88;;;5.88;;
6832;SDS011;3454;42.654;23.378;2022-08-21T06:36:41;8.32;;;7.20;;
6832;SDS011;3454;42.654;23.378;2022-08-21T06:39:07;12.73;;;6.95;;
6832;SDS011;3454;42.654;23.378;2022-08-21T06:41:32;11.60;;;7.88;;
6832;SDS011;3454;42.654;23.378;2022-08-21T06:43:58;15.70;;;6.70;;
6832;SDS011;3454;42.654;23.378;2022-08-21T06:46:25;11.00;;;6.40;;
6832;SDS011;3454;42.654;23.378;2022-08-21T06:48:53;8.90;;;6.70;;
6832;SDS011;3454;42.654;23.378;2022-08-21T06:51:19;11.55;;;7.45;;
6832;SDS011;3454;42.654;23.378;2022-08-21T06:53:44;11.88;;;6.43;;
6832;SDS011;3454;42.654;23.378;2022-08-21T06:56:10;11.15;;;6.80;;
6832;SDS011;3454;42.654;23.378;2022-08-21T06:58:35;13.18;;;6.30;;
6832;SDS011;3454;42.654;23.378;2022-08-21T07:01:01;10.55;;;6.32;;
6832;SDS011;3454;42.654;23.378;2022-08-21T07:03:29;9.43;;;5.50;;
6832;SDS011;3454;42.654;23.378;2022-08-21T07:05:59;11.05;;;6.85;;
6832;SDS011;3454;42.654;23.378;2022-08-21T07:08:26;15.25;;;6.10;;
6832;SDS011;3454;42.654;23.378;2022-08-21T07:10:53;11.75;;;7.20;;
6832;SDS011;3454;42.654;23.378;2022-08-21T07:13:21;11.27;;;6.50;;
6832;SDS011;3454;42.654;23.378;2022-08-21T07:15:47;8.18;;;6.15;;
6832;SDS011;3454;42.654;23.378;2022-08-21T07:18:12;8.68;;;7.35;;
6832;SDS011;3454;42.654;23.378;2022-08-21T07:20:38;26.50;;;16.98;;
6832;SDS011;3454;42.654;23.378;2022-08-21T07:23:06;12.70;;;8.18;;
6832;SDS011;3454;42.654;23.378;2022-08-21T07:25:53;10.98;;;6.65;;
6832;SDS011;3454;42.654;23.378;2022-08-21T07:28:19;8.32;;;6.75;;
6832;SDS011;3454;42.654;23.378;2022-08-21T07:30:44;10.65;;;6.22;;
6832;SDS011;3454;42.654;23.378;2022-08-21T07:33:11;10.25;;;5.40;;
6832;SDS011;3454;42.654;23.378;2022-08-21T07:35:36;10.10;;;5.20;;
6832;SDS011;3454;42.654;23.378;2022-08-21T07:38:02;8.90;;;5.28;;
6832;SDS011;3454;42.654;23.378;2022-08-21T07:40:27;13.80;;;5.20;;
6832;SDS011;3454;42.654;23.378;2022-08-21T07:42:52;19.05;;;12.90;;
6832;SDS011;3454;42.654;23.378;2022-08-21T07:45:20;15.82;;;11.98;;
6832;SDS011;3454;42.654;23.378;2022-08-21T07:47:47;12.18;;;5.78;;
6832;SDS011;3454;42.654;23.378;2022-08-21T07:50:13;7.32;;;5.00;;
6832;SDS011;3454;42.654;23.378;2022-08-21T07:52:40;7.32;;;6.28;;
6832;SDS011;3454;42.654;23.378;2022-08-21T07:55:07;14.52;;;7.15;;
6832;SDS011;3454;42.654;23.378;2022-08-21T07:57:33;11.75;;;6.78;;
6832;SDS011;3454;42.654;23.378;2022-08-21T07:59:59;10.88;;;7.18;;
6832;SDS011;3454;42.654;23.378;2022-08-21T08:02:26;11.68;;;6.65;;
6832;SDS011;3454;42.654;23.378;2022-08-21T08:04:53;13.02;;;7.53;;
6832;SDS011;3454;42.654;23.378;2022-08-21T08:07:19;9.70;;;6.65;;
6832;SDS011;3454;42.654;23.378;2022-08-21T08:09:45;10.80;;;6.97;;
6832;SDS011;3454;42.654;23.378;2022-08-21T08:12:11;15.30;;;6.90;;
6832;SDS011;3454;42.654;23.378;2022-08-21T08:14:37;13.90;;;8.13;;
6832;SDS011;3454;42.654;23.378;2022-08-21T08:17:03;11.27;;;6.28;;
6832;SDS011;3454;42.654;23.378;2022-08-21T08:19:29;13.90;;;7.40;;
6832;SDS011;3454;42.654;23.378;2022-08-21T08:21:54;11.40;;;5.57;;
6832;SDS011;3454;42.654;23.378;2022-08-21T08:24:20;9.90;;;5.90;;
6832;SDS011;3454;42.654;23.378;2022-08-21T08:26:46;9.25;;;5.78;;
6832;SDS011;3454;42.654;23.378;2022-08-21T08:29:12;10.07;;;5.93;;
6832;SDS011;3454;42.654;23.378;2022-08-21T08:31:37;8.32;;;6.03;;
6832;SDS011;3454;42.654;23.378;2022-08-21T08:34:03;11.40;;;6.53;;
6832;SDS011;3454;42.654;23.378;2022-08-21T08:36:37;13.13;;;8.48;;
6832;SDS011;3454;42.654;23.378;2022-08-21T08:39:03;9.52;;;7.72;;
6832;SDS011;3454;42.654;23.378;2022-08-21T08:41:30;12.88;;;8.07;;
6832;SDS011;3454;42.654;23.378;2022-08-21T08:44:02;14.88;;;8.05;;
6832;SDS011;3454;42.654;23.378;2022-08-21T08:46:46;12.65;;;8.63;;
6832;SDS011;3454;42.654;23.378;2022-08-21T08:49:18;16.58;;;10.50;;
6832;SDS011;3454;42.654;23.378;2022-08-21T08:51:52;16.15;;;12.27;;
6832;SDS011;3454;42.654;23.378;2022-08-21T08:54:27;12.20;;;9.48;;
6832;SDS011;3454;42.654;23.378;2022-08-21T08:56:56;14.10;;;8.93;;
6832;SDS011;3454;42.654;23.378;2022-08-21T08:59:27;11.93;;;7.95;;
6832;SDS011;3454;42.654;23.378;2022-08-21T09:02:01;15.32;;;7.85;;
6832;SDS011;3454;42.654;23.378;2022-08-21T09:04:26;8.43;;;6.97;;
6832;SDS011;3454;42.654;23.378;2022-08-21T09:07:01;13.13;;;6.88;;
6832;SDS011;3454;42.654;23.378;2022-08-21T09:09:45;9.80;;;7.10;;
6832;SDS011;3454;42.654;23.378;2022-08-21T09:12:28;10.73;;;7.40;;
6832;SDS011;3454;42.654;23.378;2022-08-21T09:15:25;10.32;;;7.05;;
6832;SDS011;3454;42.654;23.378;2022-08-21T09:23:30;8.48;;;7.00;;
6832;SDS011;3454;42.654;23.378;2022-08-21T09:26:04;13.18;;;7.45;;
6832;SDS011;3454;42.654;23.378;2022-08-21T09:28:36;9.68;;;6.53;;
6832;SDS011;3454;42.654;23.378;2022-08-21T09:31:03;9.93;;;6.07;;
6832;SDS011;3454;42.654;23.378;2022-08-21T09:33:31;11.35;;;6.63;;
6832;SDS011;3454;42.654;23.378;2022-08-21T09:35:57;11.40;;;6.95;;
6832;SDS011;3454;42.654;23.378;2022-08-21T09:38:28;10.40;;;6.53;;
6832;SDS011;3454;42.654;23.378;2022-08-21T09:41:08;13.32;;;6.63;;
6832;SDS011;3454;42.654;23.378;2022-08-21T09:43:35;10.45;;;6.40;;
6832;SDS011;3454;42.654;23.378;2022-08-21T09:48:46;8.20;;;5.68;;
6832;SDS011;3454;42.654;23.378;2022-08-21T09:51:15;10.35;;;6.75;;
6832;SDS011;3454;42.654;23.378;2022-08-21T09:53:51;9.25;;;6.35;;
6832;SDS011;3454;42.654;23.378;2022-08-21T09:56:33;13.77;;;6.00;;
6832;SDS011;3454;42.654;23.378;2022-08-21T09:59:24;9.38;;;6.32;;
6832;SDS011;3454;42.654;23.378;2022-08-21T10:01:51;11.45;;;6.38;;
6832;SDS011;3454;42.654;23.378;2022-08-21T10:04:27;9.55;;;5.53;;
6832;SDS011;3454;42.654;23.378;2022-08-21T10:07:12;13.30;;;5.95;;
6832;SDS011;3454;42.654;23.378;2022-08-21T10:09:40;8.35;;;6.25;;
6832;SDS011;3454;42.654;23.378;2022-08-21T10:15:02;8.52;;;6.03;;
6832;SDS011;3454;42.654;23.378;2022-08-21T10:20:11;9.32;;;6.28;;
6832;SDS011;3454;42.654;23.378;2022-08-21T10:22:50;8.15;;;6.32;;
6832;SDS011;3454;42.654;23.378;2022-08-21T10:25:38;11.52;;;6.15;;
6832;SDS011;3454;42.654;23.378;2022-08-21T10:30:56;8.18;;;5.50;;
6832;SDS011;3454;42.654;23.378;2022-08-21T10:38:34;10.35;;;5.15;;
6832;SDS011;3454;42.654;23.378;2022-08-21T10:44:14;10.93;;;5.30;;
6832;SDS011;3454;42.654;23.378;2022-08-21T11:00:22;10.25;;;5.30;;
6832;SDS011;3454;42.654;23.378;2022-08-21T11:03:05;13.10;;;5.95;;
6832;SDS011;3454;42.654;23.378;2022-08-21T11:05:38;6.93;;;4.50;;
6832;SDS011;3454;42.654;23.378;2022-08-21T11:08:17;7.63;;;4.90;;
6832;SDS011;3454;42.654;23.378;2022-08-21T11:13:27;6.60;;;4.65;;
6832;SDS011;3454;42.654;23.378;2022-08-21T11:21:54;4.65;;;3.88;;
6832;SDS011;3454;42.654;23.378;2022-08-21T11:24:32;6.75;;;4.00;;
6832;SDS011;3454;42.654;23.378;2022-08-21T11:29:40;7.55;;;4.78;;
6832;SDS011;3454;42.654;23.378;2022-08-21T11:45:47;5.88;;;4.18;;
6832;SDS011;3454;42.654;23.378;2022-08-21T11:50:59;7.45;;;5.00;;
6832;SDS011;3454;42.654;23.378;2022-08-21T11:53:49;7.97;;;4.88;;
6832;SDS011;3454;42.654;23.378;2022-08-21T11:56:48;7.53;;;4.38;;
6832;SDS011;3454;42.654;23.378;2022-08-21T11:59:49;7.45;;;4.78;;
6832;SDS011;3454;42.654;23.378;2022-08-21T12:02:23;6.80;;;4.88;;
6832;SDS011;3454;42.654;23.378;2022-08-21T12:04:54;11.10;;;5.03;;
6832;SDS011;3454;42.654;23.378;2022-08-21T12:09:56;7.90;;;4.82;;
6832;SDS011;3454;42.654;23.378;2022-08-21T12:12:25;6.95;;;4.45;;
6832;SDS011;3454;42.654;23.378;2022-08-21T12:20:32;10.88;;;5.10;;
6832;SDS011;3454;42.654;23.378;2022-08-21T12:25:37;7.25;;;4.93;;
6832;SDS011;3454;42.654;23.378;2022-08-21T12:28:23;6.82;;;4.93;;
6832;SDS011;3454;42.654;23.378;2022-08-21T12:30:49;6.95;;;5.10;;
6832;SDS011;3454;42.654;23.378;2022-08-21T12:35:48;6.75;;;4.72;;
6832;SDS011;3454;42.654;23.378;2022-08-21T12:38:29;6.15;;;4.80;;
6832;SDS011;3454;42.654;23.378;2022-08-21T12:41:10;6.32;;;4.88;;
6832;SDS011;3454;42.654;23.378;2022-08-21T12:43:43;8.60;;;5.13;;
6832;SDS011;3454;42.654;23.378;2022-08-21T12:46:26;8.32;;;4.50;;
6832;SDS011;3454;42.654;23.378;2022-08-21T12:48:59;5.95;;;4.45;;
6832;SDS011;3454;42.654;23.378;2022-08-21T12:51:38;8.45;;;4.93;;
6832;SDS011;3454;42.654;23.378;2022-08-21T12:54:09;5.97;;;4.97;;
6832;SDS011;3454;42.654;23.378;2022-08-21T12:56:34;8.43;;;4.82;;
6832;SDS011;3454;42.654;23.378;2022-08-21T12:59:10;11.65;;;7.07;;
6832;SDS011;3454;42.654;23.378;2022-08-21T13:01:47;10.88;;;4.70;;
6832;SDS011;3454;42.654;23.378;2022-08-21T13:04:19;6.00;;;4.50;;
6832;SDS011;3454;42.654;23.378;2022-08-21T13:06:53;6.57;;;4.30;;
6832;SDS011;3454;42.654;23.378;2022-08-21T13:09:25;7.43;;;5.07;;
6832;SDS011;3454;42.654;23.378;2022-08-21T13:11:52;8.27;;;4.60;;
6832;SDS011;3454;42.654;23.378;2022-08-21T13:17:03;5.47;;;4.20;;
6832;SDS011;3454;42.654;23.378;2022-08-21T13:19:30;8.15;;;4.85;;
6832;SDS011;3454;42.654;23.378;2022-08-21T13:21:56;8.70;;;5.15;;
6832;SDS011;3454;42.654;23.378;2022-08-21T13:24:24;7.00;;;4.85;;
6832;SDS011;3454;42.654;23.378;2022-08-21T13:26:52;6.22;;;4.90;;
6832;SDS011;3454;42.654;23.378;2022-08-21T13:29:19;7.82;;;5.38;;
6832;SDS011;3454;42.654;23.378;2022-08-21T13:31:48;8.70;;;4.88;;
6832;SDS011;3454;42.654;23.378;2022-08-21T13:34:17;7.75;;;4.50;;
6832;SDS011;3454;42.654;23.378;2022-08-21T13:36:44;7.53;;;5.18;;
6832;SDS011;3454;42.654;23.378;2022-08-21T13:39:17;10.18;;;5.10;;
6832;SDS011;3454;42.654;23.378;2022-08-21T13:41:44;9.57;;;5.32;;
6832;SDS011;3454;42.654;23.378;2022-08-21T13:44:19;6.93;;;4.80;;
6832;SDS011;3454;42.654;23.378;2022-08-21T13:46:47;8.75;;;5.40;;
6832;SDS011;3454;42.654;23.378;2022-08-21T13:49:16;6.82;;;4.70;;
6832;SDS011;3454;42.654;23.378;2022-08-21T13:51:44;5.38;;;4.68;;
6832;SDS011;3454;42.654;23.378;2022-08-21T13:56:58;8.77;;;5.80;;
6832;SDS011;3454;42.654;23.378;2022-08-21T13:59:25;9.15;;;5.15;;
6832;SDS011;3454;42.654;23.378;2022-08-21T14:01:54;11.13;;;5.82;;
6832;SDS011;3454;42.654;23.378;2022-08-21T14:04:47;8.07;;;5.53;;
6832;SDS011;3454;42.654;23.378;2022-08-21T14:07:35;12.90;;;5.90;;
6832;SDS011;3454;42.654;23.378;2022-08-21T14:10:11;15.32;;;6.05;;
6832;SDS011;3454;42.654;23.378;2022-08-21T14:12:43;9.13;;;5.00;;
6832;SDS011;3454;42.654;23.378;2022-08-21T14:15:13;8.07;;;5.47;;
6832;SDS011;3454;42.654;23.378;2022-08-21T14:17:41;5.97;;;4.55;;
6832;SDS011;3454;42.654;23.378;2022-08-21T14:20:09;6.93;;;4.82;;
6832;SDS011;3454;42.654;23.378;2022-08-21T14:27:33;7.38;;;5.18;;
6832;SDS011;3454;42.654;23.378;2022-08-21T14:31:11;8.65;;;5.90;;
6832;SDS011;3454;42.654;23.378;2022-08-21T14:33:00;11.52;;;5.68;;
6832;SDS011;3454;42.654;23.378;2022-08-21T14:35:27;8.05;;;5.95;;
6832;SDS011;3454;42.654;23.378;2022-08-21T14:37:53;7.47;;;5.07;;
6832;SDS011;3454;42.654;23.378;2022-08-21T14:40:20;6.25;;;5.32;;
6832;SDS011;3454;42.654;23.378;2022-08-21T14:42:47;11.05;;;5.45;;
6832;SDS011;3454;42.654;23.378;2022-08-21T14:47:53;11.50;;;5.35;;
6832;SDS011;3454;42.654;23.378;2022-08-21T14:50:20;12.48;;;5.32;;
6832;SDS011;3454;42.654;23.378;2022-08-21T14:52:52;11.25;;;5.00;;
6832;SDS011;3454;42.654;23.378;2022-08-21T14:55:18;8.35;;;5.13;;
6832;SDS011;3454;42.654;23.378;2022-08-21T14:57:48;9.35;;;5.00;;
6832;SDS011;3454;42.654;23.378;2022-08-21T15:00:17;6.63;;;5.18;;
6832;SDS011;3454;42.654;23.378;2022-08-21T15:02:45;9.15;;;5.88;;
6832;SDS011;3454;42.654;23.378;2022-08-21T15:05:11;9.65;;;5.72;;
6832;SDS011;3454;42.654;23.378;2022-08-21T15:07:38;7.68;;;4.82;;
6832;SDS011;3454;42.654;23.378;2022-08-21T15:10:04;10.18;;;5.53;;
6832;SDS011;3454;42.654;23.378;2022-08-21T15:12:30;11.73;;;5.45;;
6832;SDS011;3454;42.654;23.378;2022-08-21T15:14:56;8.50;;;5.47;;
6832;SDS011;3454;42.654;23.378;2022-08-21T15:17:21;7.18;;;4.75;;
6832;SDS011;3454;42.654;23.378;2022-08-21T15:19:47;10.55;;;5.82;;
6832;SDS011;3454;42.654;23.378;2022-08-21T15:22:13;9.00;;;5.93;;
6832;SDS011;3454;42.654;23.378;2022-08-21T15:24:38;8.20;;;5.05;;
6832;SDS011;3454;42.654;23.378;2022-08-21T15:27:04;6.47;;;4.68;;
6832;SDS011;3454;42.654;23.378;2022-08-21T15:29:32;7.75;;;5.45;;
6832;SDS011;3454;42.654;23.378;2022-08-21T15:31:59;9.50;;;5.75;;
6832;SDS011;3454;42.654;23.378;2022-08-21T15:34:27;12.05;;;6.22;;
6832;SDS011;3454;42.654;23.378;2022-08-21T15:36:55;9.38;;;5.93;;
6832;SDS011;3454;42.654;23.378;2022-08-21T15:39:22;8.48;;;5.55;;
6832;SDS011;3454;42.654;23.378;2022-08-21T15:41:48;8.60;;;5.75;;
6832;SDS011;3454;42.654;23.378;2022-08-21T15:44:14;9.50;;;5.85;;
6832;SDS011;3454;42.654;23.378;2022-08-21T15:46:41;9.43;;;6.13;;
6832;SDS011;3454;42.654;23.378;2022-08-21T15:49:07;9.55;;;5.72;;
6832;SDS011;3454;42.654;23.378;2022-08-21T15:51:33;12.27;;;6.20;;
6832;SDS011;3454;42.654;23.378;2022-08-21T15:53:59;9.95;;;6.15;;
6832;SDS011;3454;42.654;23.378;2022-08-21T15:56:26;8.15;;;5.38;;
6832;SDS011;3454;42.654;23.378;2022-08-21T15:58:58;13.07;;;5.85;;
6832;SDS011;3454;42.654;23.378;2022-08-21T16:01:25;6.97;;;5.20;;
6832;SDS011;3454;42.654;23.378;2022-08-21T16:03:52;9.90;;;6.13;;
6832;SDS011;3454;42.654;23.378;2022-08-21T16:06:19;10.30;;;6.45;;
6832;SDS011;3454;42.654;23.378;2022-08-21T16:08:45;5.90;;;5.28;;
6832;SDS011;3454;42.654;23.378;2022-08-21T16:11:13;7.40;;;6.13;;
6832;SDS011;3454;42.654;23.378;2022-08-21T16:13:41;7.15;;;5.03;;
6832;SDS011;3454;42.654;23.378;2022-08-21T16:16:12;12.02;;;6.88;;
6832;SDS011;3454;42.654;23.378;2022-08-21T16:18:41;7.28;;;5.35;;
6832;SDS011;3454;42.654;23.378;2022-08-21T16:21:07;7.70;;;4.72;;
6832;SDS011;3454;42.654;23.378;2022-08-21T16:23:33;6.63;;;5.00;;
6832;SDS011;3454;42.654;23.378;2022-08-21T16:26:00;6.85;;;4.90;;
6832;SDS011;3454;42.654;23.378;2022-08-21T16:28:28;8.30;;;5.10;;
6832;SDS011;3454;42.654;23.378;2022-08-21T16:30:54;6.68;;;5.03;;
6832;SDS011;3454;42.654;23.378;2022-08-21T16:33:29;6.97;;;5.30;;
6832;SDS011;3454;42.654;23.378;2022-08-21T16:35:58;8.38;;;5.00;;